^^
Station Historical Data
Daily Summary for May 1, 2017 Units:  Metric    English   Both
« Previous Day
Next Day »
Daily Weekly Monthly Yearly Custom
  High: Low: Average:
Temperature: 26.4 °C 14.8 °C 18.2 °C
Dew Point: 13.5 °C 7.8 °C 11.8 °C
Humidity: 82% 31% 69%
Wind Speed: 22.7km/h 0km/h 2.4km/h
Wind Gust: 35.4km/h - -
Wind- - West
Pressure: 1015.8 hPa 1013.4 hPa -
Precipitation: 0 mm    
Historical Graphs
 
 
Tabular Data for May 1, 2017
Time Temperature Dew Point Pressure Wind Wind Speed Wind Gust Humidity Rainfall Rate (Hourly) solar Conditions
00:03 18.5 °C 13.4 °C 1014.1 hPa SW 3.2 km/h 6.4 km/h 72% 0 mm 0.0 W/m2
00:13 18.6 °C 13.5 °C 1014.1 hPa SW 4.7 km/h 4.8 km/h 72% 0 mm 0.0 W/m2
00:19 18.6 °C 13.5 °C 1014.1 hPa SW 4.7 km/h 8 km/h 72% 0 mm 0.0 W/m2
00:24 18.5 °C 13.4 °C 1014.1 hPa SW 4.7 km/h 6.4 km/h 72% 0 mm 0.0 W/m2
00:29 18.5 °C 13.4 °C 1014.1 hPa SW 4.7 km/h 4.8 km/h 72% 0 mm 0.0 W/m2
00:39 18.3 °C 13.4 °C 1014.1 hPa SW 6.4 km/h 6.4 km/h 73% 0 mm 0.0 W/m2
00:44 18.3 °C 13.4 °C 1014.1 hPa Calm   3.2 km/h 73% 0 mm 0.0 W/m2
00:49 18.2 °C 13.3 °C 1014.1 hPa Calm     73% 0 mm 0.0 W/m2
00:54 18.2 °C 13.3 °C 1014.1 hPa Calm     73% 0 mm 0.0 W/m2
00:59 18.2 °C 13.3 °C 1014.1 hPa Calm     73% 0 mm 0.0 W/m2
01:04 18.1 °C 13.2 °C 1014.1 hPa Calm     73% 0 mm 0.0 W/m2
01:14 18.1 °C 13.2 °C 1014.1 hPa Calm     73% 0 mm 0.0 W/m2
01:25 18.3 °C 13.4 °C 1014.1 hPa SW 4.7 km/h 8 km/h 73% 0 mm 0.0 W/m2
01:30 18.3 °C 13.4 °C 1014.1 hPa SW 6.4 km/h 6.4 km/h 73% 0 mm 0.0 W/m2
01:35 18.3 °C 13.4 °C 1014.1 hPa SW 6.4 km/h 8 km/h 73% 0 mm 0.0 W/m2
01:40 18.4 °C 13.5 °C 1014.1 hPa SW 3.2 km/h 6.4 km/h 73% 0 mm 0.0 W/m2
01:46 18.4 °C 13.5 °C 1013.8 hPa SW 3.2 km/h 4.8 km/h 73% 0 mm 0.0 W/m2
01:51 18.3 °C 13.4 °C 1013.8 hPa Calm     73% 0 mm 0.0 W/m2
01:56 18.3 °C 13.4 °C 1013.8 hPa Calm     73% 0 mm 0.0 W/m2
02:01 18.2 °C 13.3 °C 1013.8 hPa Calm     73% 0 mm 0.0 W/m2
02:06 18.2 °C 13.3 °C 1013.4 hPa Calm     73% 0 mm 0.0 W/m2
02:12 18.1 °C 13.2 °C 1013.4 hPa Calm     73% 0 mm 0.0 W/m2
02:17 18 °C 13.3 °C 1013.4 hPa Calm     74% 0 mm 0.0 W/m2
02:22 17.9 °C 13.2 °C 1013.4 hPa Calm     74% 0 mm 0.0 W/m2
02:28 17.8 °C 12.9 °C 1013.4 hPa Calm     73% 0 mm 0.0 W/m2
02:33 17.7 °C 13 °C 1013.4 hPa Calm     74% 0 mm 0.0 W/m2
02:38 17.6 °C 12.7 °C 1013.4 hPa Calm     73% 0 mm 0.0 W/m2
02:43 17.4 °C 12.5 °C 1013.4 hPa Calm     73% 0 mm 0.0 W/m2
02:48 17.4 °C 12.5 °C 1013.4 hPa Calm     73% 0 mm 0.0 W/m2
02:53 17.3 °C 12.4 °C 1013.4 hPa Calm     73% 0 mm 0.0 W/m2
02:59 17.3 °C 12.4 °C 1013.4 hPa Calm     73% 0 mm 0.0 W/m2
03:04 17.2 °C 12.5 °C 1013.4 hPa Calm     74% 0 mm 0.0 W/m2
03:09 17.2 °C 12.7 °C 1013.4 hPa Calm     75% 0 mm 0.0 W/m2
03:14 17.1 °C 12.4 °C 1013.8 hPa Calm     74% 0 mm 0.0 W/m2
03:19 17 °C 12.3 °C 1013.4 hPa Calm     74% 0 mm 0.0 W/m2
03:24 16.9 °C 12.4 °C 1013.4 hPa Calm     75% 0 mm 0.0 W/m2
03:29 16.8 °C 12.3 °C 1013.4 hPa Calm     75% 0 mm 0.0 W/m2
03:34 16.7 °C 12.4 °C 1013.4 hPa Calm     76% 0 mm 0.0 W/m2
03:40 16.6 °C 12.4 °C 1013.4 hPa Calm     76% 0 mm 0.0 W/m2
03:45 16.4 °C 12.2 °C 1013.8 hPa Calm     76% 0 mm 0.0 W/m2
03:50 16.3 °C 12.5 °C 1013.8 hPa SW 1.4 km/h 6.4 km/h 78% 0 mm 0.0 W/m2
03:55 16.4 °C 12.4 °C 1013.8 hPa SW 3.2 km/h 4.8 km/h 77% 0 mm 0.0 W/m2
04:01 16.3 °C 12.3 °C 1013.8 hPa Calm     77% 0 mm 0.0 W/m2
04:06 16.2 °C 12.4 °C 1013.8 hPa Calm     78% 0 mm 0.0 W/m2
04:11 16.2 °C 12.4 °C 1013.8 hPa Calm     78% 0 mm 0.0 W/m2
04:16 16.1 °C 12.3 °C 1013.8 hPa Calm     78% 0 mm 0.0 W/m2
04:22 15.9 °C 12.1 °C 1013.8 hPa Calm     78% 0 mm 0.0 W/m2
04:27 15.9 °C 12.1 °C 1013.8 hPa Calm     78% 0 mm 0.0 W/m2
04:32 15.8 °C 12.2 °C 1013.8 hPa Calm     79% 0 mm 0.0 W/m2
04:38 15.6 °C 12 °C 1013.8 hPa Calm     79% 0 mm 0.0 W/m2
04:48 15.4 °C 12 °C 1014.1 hPa Calm     80% 0 mm 0.0 W/m2
05:04 15.1 °C 11.7 °C 1014.1 hPa Calm     80% 0 mm 0.0 W/m2
05:09 15 °C 11.6 °C 1014.1 hPa Calm     80% 0 mm 0.0 W/m2
05:19 14.9 °C 11.3 °C 1014.1 hPa Calm     79% 0 mm 0.0 W/m2
05:24 14.9 °C 11.5 °C 1014.1 hPa Calm     80% 0 mm 0.0 W/m2
05:29 14.9 °C 11.7 °C 1014.1 hPa Calm     81% 0 mm 0.0 W/m2
05:35 14.9 °C 11.7 °C 1014.1 hPa Calm     81% 0 mm 0.0 W/m2
05:40 14.9 °C 11.9 °C 1014.1 hPa Calm     82% 0 mm 0.0 W/m2
05:50 14.9 °C 11.7 °C 1014.4 hPa Calm     81% 0 mm 0.0 W/m2
06:00 14.8 °C 10.6 °C 1014.4 hPa Calm     76% 0 mm 0.0 W/m2
06:08 15.2 °C 11 °C 1014.8 hPa Calm     76% 0 mm 0.0 W/m2
06:16 15.2 °C 11.4 °C 1014.4 hPa Calm     78% 0 mm 5.0 W/m2
06:32 15.3 °C 11.3 °C 1014.4 hPa Calm     77% 0 mm 11.0 W/m2
07:02 15.7 °C 12.1 °C 1015.1 hPa Calm     79% 0 mm 70.0 W/m2
07:12 16.4 °C 12.4 °C 1014.8 hPa Calm     77% 0 mm 104.0 W/m2
07:21 17 °C 11.3 °C 1014.8 hPa Calm     69% 0 mm 137.0 W/m2
07:28 18.8 °C 9.3 °C 1015.1 hPa Calm     54% 0 mm 183.0 W/m2
07:43 21.7 °C 8.2 °C 1015.1 hPa Calm   4.8 km/h 42% 0 mm 237.0 W/m2
07:58 23.1 °C 8 °C 1015.5 hPa Calm   12.9 km/h 38% 0 mm 278.0 W/m2
08:13 23.6 °C 8.1 °C 1015.5 hPa Calm   9.7 km/h 37% 0 mm 313.0 W/m2
08:28 24 °C 8 °C 1015.5 hPa NNW 14.3 km/h 24.1 km/h 36% 0 mm 357.0 W/m2
08:43 24.4 °C 7.9 °C 1015.5 hPa North 14.3 km/h 22.5 km/h 35% 0 mm 396.0 W/m2
08:48 24.4 °C 7.9 °C 1015.5 hPa North 22.7 km/h 35.4 km/h 35% 0 mm 425.0 W/m2
09:03 24.6 °C 8.1 °C 1015.5 hPa North 20.9 km/h 22.5 km/h 35% 0 mm 450.0 W/m2
09:28 25.2 °C 7.8 °C 1015.8 hPa North 11.1 km/h 19.3 km/h 33% 0 mm 512.0 W/m2
09:38 25.4 °C 8 °C 1015.8 hPa North 6.4 km/h 27.4 km/h 33% 0 mm 527.0 W/m2
09:49 25.7 °C 8.2 °C 1015.5 hPa North 13 km/h 29 km/h 33% 0 mm 550.0 W/m2
10:03 25.9 °C 7.9 °C 1015.5 hPa North 13 km/h 24.1 km/h 32% 0 mm 584.0 W/m2
10:14 26.1 °C 8.1 °C 1015.5 hPa NNW 7.9 km/h 29 km/h 32% 0 mm 599.0 W/m2
10:26 26.4 °C 7.9 °C 1015.1 hPa North 13 km/h 27.4 km/h 31% 0 mm 622.0 W/m2
Canyon Roadhouse, Fishriver Canyon, Namibia
Compliments of Weather Underground - 2 mb